Time;durP1;ratioP1;P1;durP2;ratioP2;P2;SDS_P1;SDS_P2;PMS_P1;PMS_P2;Temp;Humidity;BMP_temperature;BMP_pressure;BME280_temperature;BME280_humidity;BME280_pressure;Samples;Min_cycle;Max_cycle;Signal;HPM_P1;HPM_P2
2022/05/27 00:00:18;;;;;;;3.00;1.40;;;18.20;99.90;;;;;;2089606;28;20508;-69
2022/05/27 00:01:22;;;;;;;1.30;1.17;;;18.10;99.90;;;;;;2082854;28;20108;-70
2022/05/27 00:02:22;;;;;;;4.30;1.70;;;18.10;99.90;;;;;;2083758;28;20021;-69
2022/05/27 00:03:23;;;;;;;4.53;1.58;;;18.10;99.90;;;;;;2090695;28;20051;-70
2022/05/27 00:04:24;;;;;;;3.35;1.20;;;18.10;99.90;;;;;;2087496;28;20025;-70
2022/05/27 00:05:24;;;;;;;3.47;1.40;;;18.10;99.90;;;;;;2087214;28;20021;-69
2022/05/27 00:06:26;;;;;;;5.10;1.48;;;18.10;99.90;;;;;;2087957;28;20029;-70
2022/05/27 00:07:27;;;;;;;3.33;1.67;;;18.10;99.90;;;;;;2092092;28;20083;-69
2022/05/27 00:08:28;;;;;;;4.15;1.45;;;18.10;99.90;;;;;;2087086;28;20029;-69
2022/05/27 00:09:29;;;;;;;6.53;1.10;;;18.10;99.90;;;;;;2089568;28;20021;-69
2022/05/27 00:10:29;;;;;;;3.85;1.67;;;18.10;99.90;;;;;;2084123;28;20519;-69
2022/05/27 00:11:30;;;;;;;2.50;1.35;;;18.00;99.90;;;;;;2085837;28;20487;-69
2022/05/27 00:12:31;;;;;;;2.78;1.33;;;18.00;99.90;;;;;;2083147;28;20045;-69
2022/05/27 00:13:31;;;;;;;2.63;1.20;;;18.00;99.90;;;;;;2088275;28;20481;-69
2022/05/27 00:14:32;;;;;;;4.53;1.38;;;18.00;99.90;;;;;;2092184;28;20025;-69
2022/05/27 00:15:32;;;;;;;2.97;1.40;;;18.00;99.90;;;;;;2084819;28;20033;-70
2022/05/27 00:16:33;;;;;;;4.40;1.55;;;18.00;99.90;;;;;;2086530;28;20768;-70
2022/05/27 00:17:33;;;;;;;4.30;1.42;;;18.00;99.90;;;;;;2087588;28;20025;-69
2022/05/27 00:18:34;;;;;;;4.03;1.48;;;18.00;99.90;;;;;;2084354;28;20036;-69
2022/05/27 00:19:35;;;;;;;2.90;1.60;;;17.90;99.90;;;;;;2085299;28;20024;-69
2022/05/27 00:20:36;;;;;;;2.22;1.30;;;17.90;99.90;;;;;;2086296;28;20774;-70
2022/05/27 00:21:37;;;;;;;3.65;1.33;;;17.90;99.90;;;;;;2087860;28;20400;-69
2022/05/27 00:22:38;;;;;;;3.35;1.40;;;17.90;99.90;;;;;;2085414;28;20029;-69
2022/05/27 00:23:39;;;;;;;2.63;1.60;;;17.90;99.90;;;;;;2085101;28;20021;-69
2022/05/27 00:24:40;;;;;;;2.35;1.40;;;17.90;99.90;;;;;;2090149;28;20104;-69
2022/05/27 00:25:41;;;;;;;3.67;1.30;;;17.90;99.90;;;;;;2087395;28;20025;-70
2022/05/27 00:26:41;;;;;;;5.28;1.88;;;17.90;99.90;;;;;;2088467;28;20032;-70
2022/05/27 00:27:42;;;;;;;2.10;1.67;;;17.90;99.90;;;;;;2084717;28;20535;-69
2022/05/27 00:28:42;;;;;;;3.63;1.83;;;17.90;99.90;;;;;;2085144;28;20388;-69
2022/05/27 00:29:43;;;;;;;3.38;1.80;;;17.90;99.90;;;;;;2091815;28;20017;-70
2022/05/27 00:30:43;;;;;;;3.85;1.92;;;17.90;99.90;;;;;;2091707;28;20762;-69
2022/05/27 00:31:44;;;;;;;4.28;1.80;;;17.90;99.90;;;;;;2087934;28;20095;-69
2022/05/27 00:32:44;;;;;;;3.42;1.60;;;17.90;99.90;;;;;;2089948;28;20071;-69
2022/05/27 00:33:45;;;;;;;2.05;1.50;;;17.90;99.90;;;;;;2083336;28;20112;-71
2022/05/27 00:34:46;;;;;;;2.40;1.90;;;17.90;99.90;;;;;;2086403;28;20040;-70
2022/05/27 00:35:47;;;;;;;2.50;1.50;;;17.90;99.90;;;;;;2083394;28;20025;-70
2022/05/27 00:36:48;;;;;;;3.47;1.70;;;17.90;99.90;;;;;;2088442;28;20100;-69
2022/05/27 00:37:48;;;;;;;4.43;1.73;;;17.80;99.90;;;;;;2091483;28;20020;-69
2022/05/27 00:38:50;;;;;;;4.03;1.73;;;17.90;99.90;;;;;;2090574;28;20024;-69
2022/05/27 00:39:51;;;;;;;6.70;1.88;;;17.90;99.90;;;;;;2088290;28;20016;-69
2022/05/27 00:40:52;;;;;;;4.05;2.08;;;17.90;99.90;;;;;;2089715;28;20032;-70
2022/05/27 00:41:53;;;;;;;4.57;1.98;;;17.80;99.90;;;;;;2087769;28;20035;-69
2022/05/27 00:42:53;;;;;;;5.60;1.83;;;17.80;99.90;;;;;;2086908;28;20053;-69
2022/05/27 00:43:54;;;;;;;2.78;1.75;;;17.80;99.90;;;;;;2084608;28;20033;-69
2022/05/27 00:44:54;;;;;;;5.15;2.15;;;17.80;99.90;;;;;;2085029;28;20070;-69
2022/05/27 00:46:03;;;;;;;6.43;2.13;;;17.80;99.90;;;;;;2089658;28;20047;-69
2022/05/27 00:47:16;;;;;;;4.80;1.92;;;17.70;99.90;;;;;;2090699;28;20388;-70
2022/05/27 00:48:20;;;;;;;4.05;2.15;;;17.70;99.90;;;;;;2090621;28;20021;-69
2022/05/27 00:49:26;;;;;;;4.28;2.00;;;17.60;99.90;;;;;;2082617;28;20032;-70
2022/05/27 00:50:30;;;;;;;3.58;2.25;;;17.60;99.90;;;;;;2086057;28;20025;-70
2022/05/27 00:51:34;;;;;;;4.72;1.85;;;17.60;99.90;;;;;;2084897;28;20021;-69
2022/05/27 00:52:37;;;;;;;3.42;1.90;;;17.50;99.90;;;;;;2081410;28;20022;-70
2022/05/27 00:53:49;;;;;;;3.60;1.98;;;17.50;99.90;;;;;;2083231;28;20025;-69
2022/05/27 00:54:52;;;;;;;5.65;2.40;;;17.50;99.90;;;;;;2088157;28;20079;-70
2022/05/27 00:55:56;;;;;;;5.82;2.03;;;17.50;99.90;;;;;;2088034;28;20024;-70
2022/05/27 00:57:03;;;;;;;5.18;2.30;;;17.50;99.90;;;;;;2085716;28;20025;-70
2022/05/27 00:58:12;;;;;;;2.95;2.00;;;17.40;99.90;;;;;;2088742;28;20037;-70
2022/05/27 00:59:25;;;;;;;4.32;1.80;;;17.40;99.90;;;;;;2087450;28;20021;-70
2022/05/27 01:00:26;;;;;;;3.90;2.33;;;17.40;99.90;;;;;;2081520;28;20061;-70
2022/05/27 01:01:30;;;;;;;3.17;1.80;;;17.40;99.90;;;;;;2087545;28;20025;-70
2022/05/27 01:02:30;;;;;;;4.85;2.28;;;17.40;99.90;;;;;;2082692;28;20022;-70
2022/05/27 01:03:32;;;;;;;4.65;1.70;;;17.40;99.90;;;;;;2083171;28;20104;-70
2022/05/27 01:04:34;;;;;;;4.65;2.65;;;17.40;99.90;;;;;;2088280;28;20017;-70
2022/05/27 01:05:34;;;;;;;3.30;1.90;;;17.40;99.90;;;;;;2085864;28;20100;-70
2022/05/27 01:06:35;;;;;;;5.95;2.05;;;17.40;99.90;;;;;;2088617;28;20025;-70
2022/05/27 01:07:36;;;;;;;2.97;2.10;;;17.40;99.90;;;;;;2086523;28;20022;-70
2022/05/27 01:08:38;;;;;;;4.47;2.10;;;17.40;99.90;;;;;;2085720;28;20025;-70
2022/05/27 01:09:42;;;;;;;3.53;2.30;;;17.40;99.90;;;;;;2084634;28;20100;-70
2022/05/27 01:11:06;;;;;;;3.60;2.00;;;17.40;99.90;;;;;;2084929;28;20155;-70
2022/05/27 01:12:30;;;;;;;5.13;2.22;;;17.40;99.90;;;;;;2081805;28;20061;-70
2022/05/27 01:13:41;;;;;;;4.90;1.95;;;17.40;99.90;;;;;;2088532;28;20021;-70
2022/05/27 01:14:50;;;;;;;;;;;17.40;99.90;;;;;;2087216;28;20480;-70
2022/05/27 01:16:12;;;;;;;6.23;2.03;;;17.30;99.90;;;;;;2088232;28;19913;-70
2022/05/27 01:17:34;;;;;;;6.28;1.85;;;17.30;99.90;;;;;;2089450;28;20758;-70
2022/05/27 01:20:19;;;;;;;5.85;1.95;;;17.30;99.90;;;;;;2083896;28;20136;-70
2022/05/27 01:21:38;;;;;;;4.43;2.00;;;17.30;99.90;;;;;;2086805;28;20025;-70
2022/05/27 01:22:44;;;;;;;7.82;2.15;;;17.30;99.90;;;;;;2085380;28;20059;-70
2022/05/27 01:23:57;;;;;;;6.75;2.38;;;17.30;99.90;;;;;;2085100;28;20028;-70
2022/05/27 01:25:39;;;;;;;5.03;2.22;;;17.30;99.90;;;;;;2087240;28;20048;-70
2022/05/27 01:26:39;;;;;;;3.20;2.10;;;17.30;99.90;;;;;;2072752;28;20034;-71
2022/05/27 01:27:46;;;;;;;3.17;2.10;;;17.20;99.90;;;;;;2085236;28;20508;-71
2022/05/27 01:28:55;;;;;;;6.45;2.42;;;17.20;99.90;;;;;;2086531;28;20029;-70
2022/05/27 01:30:33;;;;;;;3.10;1.92;;;17.20;99.90;;;;;;2083278;28;20037;-70
2022/05/27 01:31:47;;;;;;;5.80;2.33;;;17.20;99.90;;;;;;2085834;28;20021;-72
2022/05/27 01:33:14;;;;;;;5.00;2.08;;;17.20;99.90;;;;;;2086144;28;20020;-71
2022/05/27 01:34:27;;;;;;;3.45;2.20;;;17.20;99.90;;;;;;2079404;28;20030;-71
2022/05/27 01:35:45;;;;;;;5.97;2.55;;;17.20;99.90;;;;;;2085746;28;20029;-71
2022/05/27 01:37:01;;;;;;;7.05;2.47;;;17.20;99.90;;;;;;2084349;28;20473;-71
2022/05/27 01:38:21;;;;;;;5.45;1.85;;;17.20;99.90;;;;;;2089208;28;20025;-71
2022/05/27 01:39:29;;;;;;;6.53;2.80;;;17.20;99.90;;;;;;2083817;28;20882;-71
2022/05/27 01:40:33;;;;;;;4.90;2.30;;;17.20;99.90;;;;;;2086234;28;20035;-71
2022/05/27 01:42:01;;;;;;;5.75;2.35;;;17.10;99.90;;;;;;2086803;28;20029;-70
2022/05/27 01:43:24;;;;;;;4.60;2.03;;;17.10;99.90;;;;;;2089747;28;20388;-71
2022/05/27 01:44:36;;;;;;;9.13;2.20;;;17.10;99.90;;;;;;2081438;28;20041;-71
2022/05/27 01:45:45;;;;;;;3.65;1.95;;;17.10;99.90;;;;;;2082825;28;20029;-71
2022/05/27 01:46:47;;;;;;;3.38;2.08;;;17.10;99.90;;;;;;2086634;28;20063;-70
2022/05/27 01:48:02;;;;;;;5.53;2.78;;;17.10;99.90;;;;;;2081250;28;20029;-71
2022/05/27 01:49:30;;;;;;;3.38;2.15;;;17.10;99.90;;;;;;2085135;28;20519;-71
2022/05/27 01:51:04;;;;;;;6.30;2.50;;;17.10;99.90;;;;;;2083783;28;20500;-71
2022/05/27 01:52:13;;;;;;;4.65;2.17;;;17.10;99.90;;;;;;2081547;28;20512;-71
2022/05/27 01:53:26;;;;;;;5.13;2.55;;;17.00;99.90;;;;;;2081316;28;20037;-71
2022/05/27 01:54:48;;;;;;;4.40;2.40;;;17.00;99.90;;;;;;2082325;28;20033;-70
2022/05/27 01:56:08;;;;;;;5.35;2.70;;;17.00;99.90;;;;;;2085663;28;20052;-71
2022/05/27 01:57:35;;;;;;;5.30;2.75;;;17.00;99.90;;;;;;2084789;28;20061;-71
2022/05/27 01:58:38;;;;;;;5.78;2.22;;;17.00;99.90;;;;;;2084984;28;20049;-71
2022/05/27 01:59:59;;;;;;;4.43;2.45;;;16.90;99.90;;;;;;2089717;28;20136;-70
2022/05/27 02:01:03;;;;;;;8.50;3.22;;;17.00;99.90;;;;;;2087889;28;20100;-70
2022/05/27 02:02:12;;;;;;;5.68;2.58;;;16.90;99.90;;;;;;2082767;28;20053;-71
2022/05/27 02:03:34;;;;;;;4.65;2.50;;;16.90;99.90;;;;;;2087458;28;20028;-70
2022/05/27 02:04:37;;;;;;;6.60;2.75;;;16.90;99.90;;;;;;2088814;28;20556;-71
2022/05/27 02:05:41;;;;;;;4.60;2.45;;;17.00;99.90;;;;;;2088516;28;20021;-71
2022/05/27 02:06:57;;;;;;;6.05;2.30;;;17.00;99.90;;;;;;2090923;28;20012;-71
2022/05/27 02:08:03;;;;;;;4.50;2.53;;;17.00;99.90;;;;;;2083319;28;20060;-70
2022/05/27 02:09:08;;;;;;;6.82;2.70;;;17.00;99.90;;;;;;2086164;28;20135;-70
2022/05/27 02:10:22;;;;;;;5.75;2.67;;;17.00;99.90;;;;;;2081458;28;20470;-71
2022/05/27 02:11:23;;;;;;;3.95;2.13;;;17.00;99.90;;;;;;2086489;28;20025;-70
2022/05/27 02:12:38;;;;;;;6.50;2.97;;;17.00;99.90;;;;;;2084758;28;20115;-70
2022/05/27 02:14:00;;;;;;;5.50;2.90;;;17.00;99.90;;;;;;2088361;28;20021;-71
2022/05/27 02:15:08;;;;;;;4.68;2.83;;;17.00;99.90;;;;;;2084804;28;20029;-71
2022/05/27 02:16:13;;;;;;;5.70;3.03;;;16.90;99.90;;;;;;2086995;28;20033;-70
2022/05/27 02:17:19;;;;;;;4.15;2.72;;;16.90;99.90;;;;;;2087626;28;20025;-70
2022/05/27 02:18:25;;;;;;;5.72;2.38;;;16.90;99.90;;;;;;2083773;28;20022;-70
2022/05/27 02:19:36;;;;;;;5.47;2.63;;;16.90;99.90;;;;;;2084355;28;20040;-71
2022/05/27 02:20:44;;;;;;;6.45;2.85;;;16.90;99.90;;;;;;2087255;28;20438;-70
2022/05/27 02:21:56;;;;;;;6.18;3.20;;;16.90;99.90;;;;;;2087716;28;20365;-71
2022/05/27 02:23:04;;;;;;;3.95;2.55;;;16.90;99.90;;;;;;2086108;28;20385;-71
2022/05/27 02:24:19;;;;;;;5.88;2.67;;;16.80;99.90;;;;;;2088009;28;20060;-70
2022/05/27 02:25:26;;;;;;;6.63;3.00;;;16.90;99.90;;;;;;2087186;28;20384;-71
2022/05/27 02:26:32;;;;;;;4.55;2.83;;;16.80;99.90;;;;;;2082418;28;20026;-71
2022/05/27 02:27:49;;;;;;;5.78;3.08;;;16.80;99.90;;;;;;2085389;28;20021;-70
2022/05/27 02:29:06;;;;;;;3.63;2.72;;;16.80;99.90;;;;;;2084721;28;20025;-70
2022/05/27 02:30:11;;;;;;;4.47;2.80;;;16.80;99.90;;;;;;2086957;28;20454;-70
2022/05/27 02:31:19;;;;;;;6.40;2.97;;;16.70;99.90;;;;;;2083834;28;20446;-71
2022/05/27 02:32:30;;;;;;;4.43;3.20;;;16.80;99.90;;;;;;2089944;28;20068;-71
2022/05/27 02:35:24;;;;;;;5.88;2.92;;;16.70;99.90;;;;;;2085213;28;20049;-71
2022/05/27 02:36:32;;;;;;;7.45;3.38;;;16.70;99.90;;;;;;2086539;28;20052;-70
2022/05/27 02:37:38;;;;;;;7.43;3.15;;;16.70;99.90;;;;;;2087888;28;20025;-70
2022/05/27 02:38:39;;;;;;;6.57;3.28;;;16.70;99.90;;;;;;2084929;28;20533;-70
2022/05/27 02:39:40;;;;;;;4.65;2.90;;;16.70;99.90;;;;;;2086847;28;20025;-70
2022/05/27 02:40:51;;;;;;;4.43;3.10;;;16.70;99.90;;;;;;2089192;28;20025;-70
2022/05/27 02:42:07;;;;;;;4.07;3.20;;;16.70;99.90;;;;;;2087009;28;20028;-70
2022/05/27 02:43:07;;;;;;;5.65;3.55;;;16.70;99.90;;;;;;2085323;28;20024;-71
2022/05/27 02:44:27;;;;;;;6.75;3.83;;;16.70;99.90;;;;;;2082717;28;20073;-70
2022/05/27 02:45:38;;;;;;;10.10;3.40;;;16.70;99.90;;;;;;2082787;28;20116;-71
2022/05/27 02:46:58;;;;;;;6.43;3.45;;;16.70;99.90;;;;;;2088616;28;20067;-71
2022/05/27 02:48:31;;;;;;;5.18;3.63;;;16.70;99.90;;;;;;2087647;28;20033;-70
2022/05/27 02:49:51;;;;;;;6.65;3.78;;;16.70;99.90;;;;;;2085720;28;20021;-71
2022/05/27 02:51:05;;;;;;;6.50;3.33;;;16.70;99.90;;;;;;2088022;28;20417;-71
2022/05/27 02:52:42;;;;;;;6.07;3.67;;;16.70;99.90;;;;;;2080395;28;20167;-70
2022/05/27 02:53:52;;;;;;;7.78;4.20;;;16.70;99.90;;;;;;2080120;28;20021;-70
2022/05/27 02:55:06;;;;;;;7.97;4.60;;;16.60;99.90;;;;;;2082304;28;20028;-70
2022/05/27 02:56:19;;;;;;;7.50;4.32;;;16.60;99.90;;;;;;2081318;28;20028;-70
2022/05/27 02:57:41;;;;;;;5.57;4.10;;;16.60;99.90;;;;;;2083315;28;20065;-71
2022/05/27 02:58:42;;;;;;;6.88;4.20;;;16.60;99.90;;;;;;2085730;28;20106;-70
2022/05/27 02:59:43;;;;;;;6.38;4.55;;;16.60;99.90;;;;;;2086738;28;20028;-70
2022/05/27 03:00:46;;;;;;;7.53;4.70;;;16.60;99.90;;;;;;2088272;28;20111;-70
2022/05/27 03:01:47;;;;;;;7.30;4.25;;;16.60;99.90;;;;;;2084366;28;20025;-70
2022/05/27 03:02:48;;;;;;;5.35;4.07;;;16.60;99.90;;;;;;2086727;28;20027;-71
2022/05/27 03:03:50;;;;;;;7.50;5.18;;;16.60;99.90;;;;;;2087619;28;20080;-71
2022/05/27 03:04:54;;;;;;;6.28;3.90;;;16.60;99.90;;;;;;2086803;28;20023;-71
2022/05/27 03:06:31;;;;;;;8.65;4.78;;;16.60;99.90;;;;;;2083712;28;20144;-71
2022/05/27 03:07:52;;;;;;;7.75;4.53;;;16.60;99.90;;;;;;2080994;28;20385;-71
2022/05/27 03:09:01;;;;;;;5.85;4.35;;;16.60;99.90;;;;;;2086901;28;20029;-72
2022/05/27 03:10:29;;;;;;;5.78;4.65;;;16.60;99.90;;;;;;2082621;28;20026;-71
2022/05/27 03:12:11;;;;;;;9.65;4.28;;;16.60;99.90;;;;;;2087583;28;20052;-71
2022/05/27 03:13:41;;;;;;;5.13;3.97;;;16.50;99.90;;;;;;2086482;28;20492;-71
2022/05/27 03:15:30;;;;;;;6.18;3.83;;;16.50;99.90;;;;;;2084030;28;20040;-71
2022/05/27 03:16:44;;;;;;;4.50;3.75;;;16.50;99.90;;;;;;2082921;28;20129;-71
2022/05/27 03:18:02;;;;;;;6.25;3.70;;;16.50;99.90;;;;;;2084977;28;20031;-71
2022/05/27 03:19:26;;;;;;;7.80;4.28;;;16.50;99.90;;;;;;2089388;28;20032;-72
2022/05/27 03:20:39;;;;;;;5.78;4.45;;;16.50;99.90;;;;;;2087575;28;20025;-71
2022/05/27 03:21:52;;;;;;;7.07;4.45;;;16.50;99.90;;;;;;2082274;28;20037;-71
2022/05/27 03:23:17;;;;;;;8.80;4.63;;;16.50;99.90;;;;;;2080089;28;20037;-71
2022/05/27 03:24:21;;;;;;;7.93;4.50;;;16.50;99.90;;;;;;2090020;28;20030;-71
2022/05/27 03:25:41;;;;;;;9.15;4.97;;;16.50;99.90;;;;;;2079667;28;20684;-71
2022/05/27 03:27:03;;;;;;;8.30;4.32;;;16.50;99.90;;;;;;2085165;28;20029;-72
2022/05/27 03:28:35;;;;;;;7.68;4.35;;;16.50;99.90;;;;;;2082116;28;20030;-72
2022/05/27 03:29:47;;;;;;;5.88;3.80;;;16.40;99.90;;;;;;2083372;28;20156;-71
2022/05/27 03:31:14;;;;;;;4.97;3.30;;;16.40;99.90;;;;;;2083214;28;20017;-71
2022/05/27 03:32:40;;;;;;;5.95;3.25;;;16.30;99.90;;;;;;2089291;28;20021;-72
2022/05/27 03:33:54;;;;;;;11.70;3.33;;;16.30;99.90;;;;;;2083163;28;20036;-72
2022/05/27 03:35:05;;;;;;;4.45;3.20;;;16.20;99.90;;;;;;2085551;28;20020;-71
2022/05/27 03:36:34;;;;;;;4.00;2.75;;;16.20;99.90;;;;;;2085085;28;20231;-71
2022/05/27 03:37:52;;;;;;;6.72;2.90;;;16.20;99.90;;;;;;2084455;28;20028;-71
2022/05/27 03:39:02;;;;;;;4.72;2.85;;;16.20;99.90;;;;;;2076634;28;20048;-72
2022/05/27 03:40:26;;;;;;;5.20;3.17;;;16.10;99.90;;;;;;2089191;28;20112;-72
2022/05/27 03:41:33;;;;;;;4.78;2.97;;;16.20;99.90;;;;;;2081012;28;20041;-72
2022/05/27 03:42:36;;;;;;;4.50;2.63;;;16.10;99.90;;;;;;2087093;28;20033;-71
2022/05/27 03:43:38;;;;;;;4.07;2.53;;;16.10;99.90;;;;;;2084979;28;20495;-72
2022/05/27 03:45:03;;;;;;;4.15;2.22;;;16.10;99.90;;;;;;2084059;28;20053;-72
2022/05/27 03:46:05;;;;;;;4.85;1.95;;;16.10;99.90;;;;;;2086254;28;20370;-72
2022/05/27 03:47:05;;;;;;;2.67;1.80;;;16.10;99.90;;;;;;2085271;28;20033;-71
2022/05/27 03:48:06;;;;;;;2.42;1.73;;;16.00;99.90;;;;;;2086246;28;20032;-72
2022/05/27 03:49:06;;;;;;;5.50;1.95;;;16.00;99.90;;;;;;2084370;28;20400;-72
2022/05/27 03:50:10;;;;;;;2.03;1.60;;;16.00;99.90;;;;;;2083525;28;20017;-71
2022/05/27 03:51:17;;;;;;;4.25;1.80;;;16.00;99.90;;;;;;2088395;28;20025;-71
2022/05/27 03:52:21;;;;;;;5.82;1.98;;;16.00;99.90;;;;;;2082047;28;20021;-71
2022/05/27 03:54:03;;;;;;;4.57;2.08;;;15.90;99.90;;;;;;2080166;28;20021;-72
2022/05/27 03:54:42;;;;;;;4.22;1.83;;;15.90;99.90;;;;;;2087043;28;20047;-71
2022/05/27 03:55:44;;;;;;;3.60;2.00;;;15.90;99.90;;;;;;2089553;28;20031;-71
2022/05/27 03:56:45;;;;;;;4.57;2.00;;;15.90;99.90;;;;;;2089102;28;20021;-72
2022/05/27 03:57:45;;;;;;;2.15;1.80;;;15.80;99.90;;;;;;2085362;28;20480;-72
2022/05/27 03:58:46;;;;;;;3.53;1.60;;;15.80;99.90;;;;;;2089714;28;20103;-71
2022/05/27 03:59:47;;;;;;;2.22;1.58;;;15.90;99.90;;;;;;2087137;28;20380;-72
2022/05/27 04:00:47;;;;;;;7.38;1.80;;;15.90;99.90;;;;;;2085816;28;20036;-72
2022/05/27 04:01:51;;;;;;;2.33;1.60;;;15.90;99.90;;;;;;2080588;28;20424;-71
2022/05/27 04:02:52;;;;;;;3.55;1.52;;;15.90;99.90;;;;;;2083454;28;20096;-72
2022/05/27 04:03:53;;;;;;;3.72;1.63;;;15.90;99.90;;;;;;2086504;28;20023;-72
2022/05/27 04:04:53;;;;;;;2.38;1.55;;;16.00;99.90;;;;;;2083818;28;20067;-72
2022/05/27 04:05:54;;;;;;;2.17;1.30;;;16.00;99.90;;;;;;2081814;28;20063;-71
2022/05/27 04:06:55;;;;;;;2.42;1.23;;;16.00;99.90;;;;;;2082472;28;20513;-72
2022/05/27 04:07:56;;;;;;;3.45;1.48;;;16.00;99.90;;;;;;2086041;28;20036;-72
2022/05/27 04:08:57;;;;;;;2.80;1.40;;;16.10;99.90;;;;;;2084463;28;20378;-71
2022/05/27 04:09:58;;;;;;;2.05;1.58;;;16.10;99.90;;;;;;2083403;28;20029;-72
2022/05/27 04:10:58;;;;;;;2.13;1.75;;;16.10;99.90;;;;;;2084492;28;20032;-72
2022/05/27 04:11:59;;;;;;;3.08;1.55;;;16.10;99.90;;;;;;2085929;28;20029;-72
2022/05/27 04:13:00;;;;;;;2.42;1.30;;;16.10;99.90;;;;;;2086642;28;20036;-72
2022/05/27 04:14:01;;;;;;;3.22;1.52;;;16.20;99.90;;;;;;2086375;28;20064;-72
2022/05/27 04:15:03;;;;;;;6.45;1.35;;;16.20;99.90;;;;;;2083170;28;20025;-72
2022/05/27 04:16:05;;;;;;;2.67;1.33;;;16.20;99.90;;;;;;2085343;28;20481;-72
2022/05/27 04:18:35;;;;;;;2.67;1.60;;;16.20;99.90;;;;;;2089220;28;20041;-72
2022/05/27 04:19:35;;;;;;;3.58;2.25;;;16.20;99.90;;;;;;2088551;28;20036;-71
2022/05/27 04:20:36;;;;;;;2.28;1.63;;;16.20;99.90;;;;;;2087285;28;20575;-72
2022/05/27 04:21:38;;;;;;;2.85;2.25;;;16.20;99.90;;;;;;2085229;28;20055;-71
2022/05/27 04:22:39;;;;;;;3.58;2.10;;;16.20;99.90;;;;;;2083761;28;20469;-72
2022/05/27 04:23:39;;;;;;;5.22;2.42;;;16.30;99.90;;;;;;2083884;28;20060;-71
2022/05/27 04:24:40;;;;;;;4.20;2.88;;;16.30;99.90;;;;;;2087186;28;20036;-72
2022/05/27 04:25:44;;;;;;;3.72;2.63;;;16.30;99.90;;;;;;2084780;28;20103;-72
2022/05/27 04:26:45;;;;;;;5.72;3.00;;;16.30;99.90;;;;;;2086632;28;20528;-72
2022/05/27 04:27:45;;;;;;;4.53;3.03;;;16.30;99.90;;;;;;2087772;28;20333;-72
2022/05/27 04:28:46;;;;;;;5.15;3.35;;;16.30;99.90;;;;;;2086531;28;20391;-72
2022/05/27 04:29:49;;;;;;;4.38;3.10;;;16.30;99.90;;;;;;2088950;28;20024;-72
2022/05/27 04:30:49;;;;;;;4.03;2.60;;;16.30;99.90;;;;;;2087816;28;20464;-72
2022/05/27 04:31:52;;;;;;;5.03;2.95;;;16.30;99.90;;;;;;2085746;28;20502;-71
2022/05/27 04:32:53;;;;;;;4.10;2.75;;;16.30;99.90;;;;;;2083529;28;20018;-71
2022/05/27 04:33:55;;;;;;;4.22;2.83;;;16.30;99.90;;;;;;2081190;28;20018;-72
2022/05/27 04:34:55;;;;;;;4.13;3.22;;;16.30;99.90;;;;;;2080019;28;20028;-71
2022/05/27 04:35:58;;;;;;;4.45;2.33;;;16.20;99.90;;;;;;2085858;28;20052;-71
2022/05/27 04:36:59;;;;;;;4.72;2.95;;;16.30;99.90;;;;;;2092444;28;20027;-71
2022/05/27 04:38:00;;;;;;;3.53;2.67;;;16.30;99.90;;;;;;2089513;28;20040;-71
2022/05/27 04:39:00;;;;;;;4.68;3.30;;;16.30;99.90;;;;;;2087054;28;20111;-71
2022/05/27 04:40:02;;;;;;;3.33;2.92;;;16.30;99.90;;;;;;2089944;28;20337;-71
2022/05/27 04:41:03;;;;;;;7.68;3.30;;;16.30;99.90;;;;;;2087295;28;20033;-71
2022/05/27 04:42:04;;;;;;;3.47;2.90;;;16.30;99.90;;;;;;2086605;28;20025;-71
2022/05/27 04:43:06;;;;;;;5.13;2.83;;;16.30;99.90;;;;;;2092730;28;20078;-71
2022/05/27 04:44:07;;;;;;;2.38;2.17;;;16.30;99.90;;;;;;2086473;28;20029;-71
2022/05/27 04:45:08;;;;;;;4.32;2.60;;;16.30;99.90;;;;;;2091979;28;20489;-71
2022/05/27 04:46:08;;;;;;;3.80;2.28;;;16.30;99.90;;;;;;2087957;28;20020;-71
2022/05/27 04:47:11;;;;;;;2.83;2.25;;;16.30;99.90;;;;;;2082924;28;20045;-71
2022/05/27 04:48:12;;;;;;;2.55;2.00;;;16.30;99.90;;;;;;2082459;28;20018;-71
2022/05/27 04:49:50;;;;;;;3.38;2.30;;;16.30;99.90;;;;;;2082271;28;20020;-71
2022/05/27 04:50:34;;;;;;;3.65;2.10;;;16.30;99.90;;;;;;2084917;28;20013;-71
2022/05/27 04:51:34;;;;;;;3.05;2.05;;;16.30;99.90;;;;;;2088085;28;20029;-71
2022/05/27 04:52:35;;;;;;;4.47;2.35;;;16.30;99.90;;;;;;2084485;28;20385;-71
2022/05/27 04:53:35;;;;;;;3.40;2.13;;;16.30;99.90;;;;;;2084552;28;20033;-71
2022/05/27 04:54:36;;;;;;;4.30;2.20;;;16.30;99.90;;;;;;2086473;28;20024;-71
2022/05/27 04:55:38;;;;;;;2.83;2.08;;;16.30;99.90;;;;;;2086408;28;20029;-71
2022/05/27 04:56:38;;;;;;;3.80;2.38;;;16.30;99.90;;;;;;2084339;28;22101;-71
2022/05/27 04:57:50;;;;;;;2.33;1.98;;;16.30;99.90;;;;;;2083609;28;20029;-71
2022/05/27 04:58:50;;;;;;;2.45;2.03;;;16.30;99.90;;;;;;2084605;28;20116;-71
2022/05/27 04:59:51;;;;;;;4.78;2.55;;;16.30;99.90;;;;;;2087320;28;20068;-71
2022/05/27 05:00:52;;;;;;;2.10;1.88;;;16.30;99.90;;;;;;2084732;28;20049;-71
2022/05/27 05:01:53;;;;;;;4.28;2.38;;;16.30;99.90;;;;;;2083104;28;20017;-71
2022/05/27 05:02:54;;;;;;;3.33;2.60;;;16.30;99.90;;;;;;2083628;28;20022;-71
2022/05/27 05:03:54;;;;;;;2.45;2.17;;;16.40;99.90;;;;;;2084162;28;20032;-71
2022/05/27 05:04:56;;;;;;;5.35;2.72;;;16.30;99.90;;;;;;2086460;28;20584;-71
2022/05/27 05:05:56;;;;;;;3.10;2.55;;;16.30;99.90;;;;;;2085291;28;20084;-71
2022/05/27 05:07:02;;;;;;;3.90;2.50;;;16.40;99.90;;;;;;2088653;28;20075;-71
2022/05/27 05:08:32;;;;;;;3.50;2.70;;;16.40;99.90;;;;;;2083231;28;20040;-71
2022/05/27 05:09:34;;;;;;;3.47;2.28;;;16.40;99.90;;;;;;2086416;28;20025;-71
2022/05/27 05:10:36;;;;;;;3.03;2.33;;;16.30;99.90;;;;;;2086895;28;20049;-71
2022/05/27 05:11:37;;;;;;;3.60;2.70;;;16.30;99.90;;;;;;2089214;28;20025;-71
2022/05/27 05:12:38;;;;;;;3.22;2.60;;;16.40;99.90;;;;;;2086744;28;20150;-71
2022/05/27 05:13:38;;;;;;;6.03;3.30;;;16.40;99.90;;;;;;2089012;28;20013;-71
2022/05/27 05:14:40;;;;;;;5.35;2.95;;;16.40;99.90;;;;;;2088796;28;20511;-71
2022/05/27 05:15:40;;;;;;;6.70;3.00;;;16.40;99.90;;;;;;2087219;28;20035;-71
2022/05/27 05:16:41;;;;;;;5.75;2.85;;;16.40;99.90;;;;;;2088117;28;20527;-71
2022/05/27 05:17:42;;;;;;;3.72;3.00;;;16.40;99.90;;;;;;2088934;28;20025;-71
2022/05/27 05:18:43;;;;;;;7.97;3.72;;;16.40;99.90;;;;;;2086013;28;20068;-71
2022/05/27 05:19:43;;;;;;;4.03;3.00;;;16.40;99.90;;;;;;2084419;28;20025;-71
2022/05/27 05:20:44;;;;;;;3.83;2.88;;;16.40;99.90;;;;;;2083958;28;20024;-71
2022/05/27 05:21:45;;;;;;;5.82;2.85;;;16.40;99.90;;;;;;2088114;28;20024;-72
2022/05/27 05:22:45;;;;;;;5.60;3.00;;;16.40;99.90;;;;;;2087052;28;20035;-71
2022/05/27 05:23:46;;;;;;;4.00;2.67;;;16.40;99.90;;;;;;2087905;28;20495;-71
2022/05/27 05:24:46;;;;;;;3.90;2.65;;;16.40;99.90;;;;;;2090552;28;20009;-71
2022/05/27 05:25:47;;;;;;;5.28;3.03;;;16.40;99.90;;;;;;2088497;28;20028;-71
2022/05/27 05:26:48;;;;;;;6.28;3.05;;;16.40;99.90;;;;;;2086674;28;20023;-71
2022/05/27 05:27:49;;;;;;;3.67;3.00;;;16.40;99.90;;;;;;2083535;28;20549;-71
2022/05/27 05:28:50;;;;;;;5.28;3.00;;;16.40;99.90;;;;;;2081448;28;20021;-71
2022/05/27 05:29:55;;;;;;;6.30;3.45;;;16.40;99.90;;;;;;2083846;28;20093;-71
2022/05/27 05:30:55;;;;;;;5.72;3.38;;;16.40;99.90;;;;;;2084932;28;20013;-71
2022/05/27 05:31:56;;;;;;;6.95;3.10;;;16.40;99.90;;;;;;2088485;28;20055;-71
2022/05/27 05:32:56;;;;;;;5.88;3.50;;;16.40;99.90;;;;;;2091410;28;20040;-71
2022/05/27 05:33:59;;;;;;;4.32;3.05;;;16.40;99.90;;;;;;2088648;28;20021;-71
2022/05/27 05:35:00;;;;;;;5.53;3.45;;;16.40;99.90;;;;;;2090615;28;20025;-71
2022/05/27 05:36:01;;;;;;;4.80;3.35;;;16.50;99.90;;;;;;2083317;28;20117;-71
2022/05/27 05:37:01;;;;;;;6.97;3.28;;;16.50;99.90;;;;;;2087925;28;20167;-71
2022/05/27 05:38:03;;;;;;;6.95;3.30;;;16.50;99.90;;;;;;2083920;28;20479;-71
2022/05/27 05:39:04;;;;;;;4.00;3.17;;;16.50;99.90;;;;;;2087966;28;20021;-71
2022/05/27 05:40:06;;;;;;;5.82;3.15;;;16.50;99.90;;;;;;2089651;28;20119;-71
2022/05/27 05:41:06;;;;;;;4.70;3.00;;;16.50;99.90;;;;;;2089600;28;20048;-71
2022/05/27 05:42:08;;;;;;;5.43;2.70;;;16.50;99.90;;;;;;2088964;28;20504;-71
2022/05/27 05:43:10;;;;;;;5.15;2.55;;;16.50;99.90;;;;;;2084225;28;20029;-71
2022/05/27 05:44:11;;;;;;;5.15;3.13;;;16.50;99.90;;;;;;2081415;28;20036;-71
2022/05/27 05:45:14;;;;;;;7.80;3.83;;;16.50;99.90;;;;;;2081007;28;20029;-71
2022/05/27 05:46:14;;;;;;;4.45;3.38;;;16.50;99.90;;;;;;2086372;28;20049;-71
2022/05/27 05:47:15;;;;;;;4.63;3.35;;;16.50;99.90;;;;;;2087980;28;20031;-71
2022/05/27 05:48:15;;;;;;;5.35;3.83;;;16.50;99.90;;;;;;2084740;28;20061;-71
2022/05/27 05:49:16;;;;;;;4.18;3.55;;;16.50;99.90;;;;;;2083729;28;20075;-71
2022/05/27 05:50:17;;;;;;;5.57;3.17;;;16.50;99.90;;;;;;2088052;28;20021;-71
2022/05/27 05:51:18;;;;;;;7.90;3.70;;;16.50;99.90;;;;;;2087613;28;20080;-71
2022/05/27 05:52:18;;;;;;;6.35;3.53;;;16.60;99.90;;;;;;2081662;28;20497;-71
2022/05/27 05:53:21;;;;;;;7.93;3.50;;;16.60;99.90;;;;;;2082555;28;20030;-71